Time;durP1;ratioP1;P1;durP2;ratioP2;P2;SDS_P1;SDS_P2;PMS_P1;PMS_P2;Temp;Humidity;BMP_temperature;BMP_pressure;BME280_temperature;BME280_humidity;BME280_pressure;Samples;Min_cycle;Max_cycle;Signal;HPM_P1;HPM_P2
2022/07/05 04:26:09;;;;;;;19.50;18.20;;;16.10;99.90;;;;;;5953583;23;20534;31
2022/07/05 04:28:36;;;;;;;20.90;19.60;;;16.20;99.90;;;;;;4892006;29;20521;-76
2022/07/05 04:31:03;;;;;;;20.13;18.63;;;16.60;99.90;;;;;;4895982;29;20490;-76
2022/07/05 04:33:30;;;;;;;20.23;19.03;;;17.20;99.90;;;;;;4894546;29;20460;-76
2022/07/05 04:35:57;;;;;;;18.27;17.10;;;17.90;99.90;;;;;;4896617;29;20467;-78
2022/07/05 04:38:23;;;;;;;17.90;16.80;;;18.50;99.90;;;;;;4896638;29;20472;-77
2022/07/05 04:40:50;;;;;;;17.10;15.93;;;18.80;99.90;;;;;;4898268;29;20474;-75
2022/07/05 04:43:18;;;;;;;16.90;15.90;;;19.20;99.90;;;;;;4896180;29;20533;-75
2022/07/05 04:45:45;;;;;;;17.30;16.10;;;19.70;99.90;;;;;;4896242;29;20463;-75
2022/07/05 04:48:12;;;;;;;16.07;14.87;;;20.00;99.90;;;;;;4896546;29;20550;-76
2022/07/05 04:50:38;;;;;;;16.10;14.90;;;20.30;99.90;;;;;;4895988;29;20466;-79
2022/07/05 04:53:05;;;;;;;16.63;15.53;;;20.50;99.90;;;;;;4896034;29;20806;-77
2022/07/05 04:55:32;;;;;;;17.73;16.43;;;21.00;99.90;;;;;;4896670;29;20459;-77
2022/07/05 04:57:59;;;;;;;15.80;14.77;;;21.30;99.90;;;;;;4896720;29;20466;-77
2022/07/05 05:04:44;;;;;;;16.73;15.67;;;21.70;99.90;;;;;;4900539;29;20411;-85
2022/07/05 05:07:12;;;;;;;16.60;15.50;;;22.20;99.90;;;;;;4898362;29;20554;-80
2022/07/05 05:09:39;;;;;;;16.47;15.30;;;22.60;99.90;;;;;;4896531;29;20463;-78
2022/07/05 05:12:06;;;;;;;16.83;15.70;;;22.70;99.90;;;;;;4896673;29;20490;-79
2022/07/05 05:14:33;;;;;;;15.57;14.80;;;22.90;99.90;;;;;;4896087;29;20462;-80
2022/07/05 05:17:00;;;;;;;16.73;15.30;;;23.30;99.90;;;;;;4896097;29;20455;-78
2022/07/05 05:19:27;;;;;;;17.33;15.90;;;23.60;99.90;;;;;;4896725;29;20463;-78
2022/07/05 05:21:53;;;;;;;15.40;14.40;;;23.80;99.90;;;;;;4896100;29;20462;-78
2022/07/05 05:24:21;;;;;;;15.50;14.50;;;23.80;99.90;;;;;;4895793;29;20551;-78
2022/07/05 05:26:49;;;;;;;16.90;15.90;;;24.10;99.90;;;;;;4890405;29;20487;-78
2022/07/05 05:29:15;;;;;;;16.53;15.07;;;24.20;99.90;;;;;;4877027;29;20954;-77
2022/07/05 05:31:42;;;;;;;16.80;15.73;;;24.40;99.90;;;;;;4876991;29;20856;-78
2022/07/05 05:34:09;;;;;;;15.60;14.90;;;24.50;99.90;;;;;;4877253;29;20460;-78
2022/07/05 05:36:36;;;;;;;16.10;15.03;;;24.60;99.90;;;;;;4877371;29;20460;-79
2022/07/05 05:39:03;;;;;;;15.63;14.57;;;25.00;99.90;;;;;;4877592;29;20551;-79
2022/07/05 05:41:31;;;;;;;16.80;15.90;;;25.10;99.60;;;;;;4877485;29;20811;-77
2022/07/05 05:43:58;;;;;;;16.50;15.40;;;25.50;98.60;;;;;;4877924;29;20456;-77
2022/07/05 05:46:25;;;;;;;15.57;14.87;;;25.90;97.60;;;;;;4878149;29;20456;-77
2022/07/05 05:48:51;;;;;;;16.13;15.43;;;26.10;96.50;;;;;;4877848;29;20487;-75
2022/07/05 05:51:18;;;;;;;17.37;16.30;;;26.30;95.00;;;;;;4877458;29;20845;-79
2022/07/05 05:53:45;;;;;;;15.90;15.10;;;26.30;94.90;;;;;;4878001;29;20868;-79
2022/07/05 05:56:12;;;;;;;15.87;14.77;;;26.10;93.90;;;;;;4877908;29;20513;-76
2022/07/05 05:58:40;;;;;;;15.70;14.60;;;26.00;93.70;;;;;;4878058;29;20468;-80
2022/07/05 06:01:07;;;;;;;14.83;14.10;;;26.10;93.50;;;;;;4879294;29;20463;-78
2022/07/05 06:03:34;;;;;;;16.03;15.23;;;26.60;92.80;;;;;;4879617;29;20456;-76
2022/07/05 06:08:56;;;;;;;15.73;15.03;;;26.90;91.10;;;;;;4862460;29;20492;-75
2022/07/05 06:11:23;;;;;;;14.80;14.00;;;27.20;90.10;;;;;;4876420;29;20492;-75
2022/07/05 06:13:51;;;;;;;14.20;13.57;;;27.60;87.80;;;;;;4876127;29;20870;-75
2022/07/05 06:16:18;;;;;;;15.63;14.73;;;28.00;84.60;;;;;;4878332;29;20455;-75
2022/07/05 06:18:45;;;;;;;15.87;14.93;;;28.10;79.60;;;;;;4877993;29;20559;-75
2022/07/05 06:21:12;;;;;;;15.30;14.47;;;28.40;79.00;;;;;;4881450;29;20946;-77
2022/07/05 06:23:39;;;;;;;15.87;14.90;;;28.70;80.70;;;;;;4882747;29;20456;-75
2022/07/05 06:26:05;;;;;;;15.20;14.40;;;28.90;78.00;;;;;;4881561;29;20480;-74
2022/07/05 06:28:32;;;;;;;15.27;14.27;;;29.10;75.50;;;;;;4881154;29;20515;-75
2022/07/05 06:31:01;;;;;;;14.10;13.50;;;29.30;73.00;;;;;;4881142;29;20519;-77
2022/07/05 06:33:28;;;;;;;14.73;14.03;;;29.60;70.00;;;;;;4879628;29;20487;-76
2022/07/05 06:35:54;;;;;;;13.60;13.00;;;29.10;69.20;;;;;;4880536;29;20890;-75
2022/07/05 06:38:21;;;;;;;14.07;13.57;;;29.00;70.10;;;;;;4879896;29;20460;-76
2022/07/05 06:40:48;;;;;;;13.30;12.80;;;29.10;69.00;;;;;;4879870;29;20468;-75
2022/07/05 06:43:15;;;;;;;13.33;12.63;;;28.90;69.10;;;;;;4880604;29;20962;-75
2022/07/05 06:45:42;;;;;;;13.93;12.93;;;29.10;66.70;;;;;;4880062;29;20452;-76
2022/07/05 06:48:11;;;;;;;13.63;13.03;;;29.00;65.70;;;;;;4879942;29;20456;-76
2022/07/05 06:50:40;;;;;;;12.67;12.00;;;28.60;65.30;;;;;;4879122;29;20951;-75
2022/07/05 06:53:08;;;;;;;13.00;11.93;;;28.40;66.00;;;;;;4879647;29;20492;-76
2022/07/05 06:55:34;;;;;;;13.47;12.67;;;28.00;67.40;;;;;;4879114;29;20803;-75
2022/07/05 06:58:03;;;;;;;13.87;12.97;;;28.10;66.20;;;;;;4879153;29;20511;-75
2022/07/05 07:00:31;;;;;;;13.50;12.90;;;28.10;67.20;;;;;;4879228;29;20456;-76
2022/07/05 07:02:58;;;;;;;13.60;12.70;;;28.40;64.40;;;;;;4879497;29;20520;-75
2022/07/05 07:05:26;;;;;;;13.27;12.07;;;28.60;64.20;;;;;;4879379;29;20456;-77
2022/07/05 07:10:37;;;;;;;13.73;13.13;;;29.20;64.00;;;;;;4879284;29;20484;-76
2022/07/05 07:13:05;;;;;;;13.60;13.00;;;29.30;61.90;;;;;;4879212;29;20502;-76
2022/07/05 07:15:33;;;;;;;12.90;12.40;;;29.40;60.50;;;;;;4879021;29;20524;-76
2022/07/05 07:18:00;;;;;;;12.90;12.40;;;29.50;59.70;;;;;;4879668;29;20476;-77
2022/07/05 07:20:28;;;;;;;13.40;12.90;;;29.40;59.50;;;;;;4884515;29;20456;-77
2022/07/05 07:22:55;;;;;;;14.47;13.77;;;29.50;60.20;;;;;;4879370;29;20819;-77
2022/07/05 07:25:23;;;;;;;15.10;14.30;;;30.30;58.60;;;;;;4879715;29;20480;-77
2022/07/05 07:27:51;;;;;;;13.17;12.50;;;30.70;57.70;;;;;;4880021;29;20992;-76
2022/07/05 07:30:20;;;;;;;13.23;12.70;;;30.90;56.80;;;;;;4881756;29;20463;-76
2022/07/05 07:32:47;;;;;;;14.03;13.27;;;31.10;56.80;;;;;;4879789;29;20503;-77
2022/07/05 07:35:15;;;;;;;14.20;13.20;;;31.30;55.40;;;;;;4879254;29;20472;-77
2022/07/05 07:37:43;;;;;;;13.33;12.73;;;30.80;56.50;;;;;;4879879;29;20459;-76
2022/07/05 07:40:10;;;;;;;14.87;14.10;;;30.90;55.90;;;;;;4878849;29;20475;-77
2022/07/05 07:42:38;;;;;;;12.93;12.33;;;30.50;56.10;;;;;;4878724;29;20966;-78
2022/07/05 07:45:06;;;;;;;14.13;13.27;;;30.70;55.50;;;;;;4879273;29;21031;-77
2022/07/05 07:47:33;;;;;;;19.90;15.70;;;30.70;56.90;;;;;;4878932;29;20824;-76
2022/07/05 07:50:00;;;;;;;14.70;13.60;;;31.30;55.40;;;;;;4879386;29;20456;-77
2022/07/05 07:52:27;;;;;;;12.30;11.70;;;31.80;53.70;;;;;;4878580;29;21032;-78
2022/07/05 07:54:55;;;;;;;16.93;15.63;;;32.10;53.10;;;;;;4878678;29;20955;-77
2022/07/05 07:57:22;;;;;;;13.47;12.60;;;32.50;53.20;;;;;;4878537;29;20471;-77
2022/07/05 07:59:48;;;;;;;12.63;12.03;;;32.70;51.50;;;;;;4878425;29;20448;-77
2022/07/05 08:02:17;;;;;;;12.60;12.07;;;32.80;51.10;;;;;;4878508;29;20951;-77
2022/07/05 08:04:43;;;;;;;13.90;13.30;;;33.20;50.40;;;;;;4882975;29;20865;-77
2022/07/05 08:07:10;;;;;;;12.73;11.93;;;33.50;50.90;;;;;;4878725;29;20460;-77
2022/07/05 08:09:37;;;;;;;13.67;13.07;;;33.40;50.30;;;;;;4878135;29;20464;-78
2022/07/05 08:12:06;;;;;;;14.30;13.80;;;33.70;49.60;;;;;;4877715;29;20627;-77
2022/07/05 08:14:33;;;;;;;14.33;13.73;;;33.60;49.30;;;;;;4877776;29;21026;-78
2022/07/05 08:17:00;;;;;;;13.90;13.30;;;33.10;50.70;;;;;;4877984;29;20468;-78
2022/07/05 08:22:11;;;;;;;14.47;13.97;;;32.30;52.00;;;;;;4878755;29;20431;-78
2022/07/05 08:24:40;;;;;;;13.80;13.10;;;32.70;50.60;;;;;;4877732;29;20463;-78
2022/07/05 08:27:09;;;;;;;14.00;13.30;;;31.60;51.70;;;;;;4877697;29;20479;-77
2022/07/05 08:29:36;;;;;;;13.93;13.00;;;31.50;51.60;;;;;;4877786;29;20452;-79
2022/07/05 08:32:02;;;;;;;13.93;13.23;;;31.90;53.00;;;;;;4875699;29;20902;-78
2022/07/05 08:34:29;;;;;;;13.70;13.10;;;32.40;51.20;;;;;;4878104;29;20467;-79
2022/07/05 08:36:56;;;;;;;13.87;13.33;;;33.10;51.60;;;;;;4877925;29;20463;-79
2022/07/05 08:39:23;;;;;;;14.27;13.57;;;33.00;50.60;;;;;;4877482;29;20460;-77
2022/07/05 08:41:51;;;;;;;15.50;14.20;;;33.60;50.00;;;;;;4876228;29;20464;-78
2022/07/05 08:44:21;;;;;;;15.17;14.17;;;34.30;48.70;;;;;;4877417;29;20452;-78
2022/07/05 08:46:50;;;;;;;15.07;14.17;;;34.60;47.50;;;;;;4877492;29;20463;-78
2022/07/05 08:49:22;;;;;;;14.37;13.67;;;34.10;48.50;;;;;;4877535;29;21045;-79
2022/07/05 08:51:50;;;;;;;13.73;13.10;;;33.60;49.00;;;;;;4879245;29;20482;-79
2022/07/05 08:54:17;;;;;;;12.27;11.60;;;33.00;49.80;;;;;;4877799;29;20456;-79
2022/07/05 08:56:45;;;;;;;13.80;13.20;;;33.30;49.80;;;;;;4877398;29;20905;-78
2022/07/05 08:59:12;;;;;;;13.37;12.80;;;33.80;49.40;;;;;;4877894;29;20459;-78
2022/07/05 09:01:41;;;;;;;14.40;13.90;;;34.30;48.10;;;;;;4876914;29;20456;-80
2022/07/05 09:04:09;;;;;;;13.43;12.90;;;34.70;47.60;;;;;;4877143;29;20470;-79
2022/07/05 09:06:38;;;;;;;15.17;14.57;;;34.60;47.40;;;;;;4877021;29;20552;-78
2022/07/05 09:09:05;;;;;;;13.40;12.87;;;34.00;47.10;;;;;;4877256;29;20559;-77
2022/07/05 09:11:36;;;;;;;15.10;14.50;;;33.90;48.60;;;;;;4876329;29;20899;-78
2022/07/05 09:14:04;;;;;;;13.07;12.50;;;34.50;47.80;;;;;;4876794;29;20492;-78
2022/07/05 09:16:32;;;;;;;13.53;12.93;;;34.60;46.40;;;;;;4876855;29;20452;-77
2022/07/05 09:19:06;;;;;;;14.03;13.43;;;34.30;47.30;;;;;;4876713;29;21010;-78
2022/07/05 09:21:34;;;;;;;13.80;13.20;;;34.70;47.20;;;;;;4876446;29;20535;-78
2022/07/05 09:24:02;;;;;;;15.07;14.17;;;35.20;46.40;;;;;;4876412;29;20460;-78
2022/07/05 09:26:33;;;;;;;14.37;13.80;;;35.70;45.10;;;;;;4876585;29;20484;-78
2022/07/05 09:29:00;;;;;;;15.00;14.30;;;34.80;44.30;;;;;;4876390;29;20459;-78
2022/07/05 09:31:28;;;;;;;15.47;14.27;;;34.90;45.00;;;;;;4876465;29;20464;-78
2022/07/05 09:33:57;;;;;;;28.97;18.63;;;34.70;44.70;;;;;;4876470;29;20573;-79
2022/07/05 09:36:26;;;;;;;15.20;14.30;;;34.50;44.20;;;;;;4876733;29;20455;-79
2022/07/05 09:38:53;;;;;;;13.93;13.23;;;33.60;45.10;;;;;;4876250;29;20467;-79
2022/07/05 09:41:19;;;;;;;14.63;14.00;;;34.10;44.20;;;;;;4874405;29;20467;-77
2022/07/05 09:43:46;;;;;;;14.00;13.40;;;33.80;42.30;;;;;;4874439;29;20452;-78
2022/07/05 09:46:13;;;;;;;14.67;13.97;;;33.50;44.70;;;;;;4876558;29;20977;-78
2022/07/05 09:48:52;;;;;;;14.10;13.60;;;33.60;45.20;;;;;;4876418;29;20575;-78
2022/07/05 09:51:19;;;;;;;13.97;13.20;;;34.30;43.80;;;;;;4872817;29;20484;-78
2022/07/05 09:53:48;;;;;;;12.97;12.47;;;33.00;44.60;;;;;;4878701;29;20499;-78
2022/07/05 09:56:15;;;;;;;12.97;12.27;;;32.30;45.20;;;;;;4879810;29;20486;-78
2022/07/05 09:58:43;;;;;;;13.33;12.83;;;32.70;45.40;;;;;;4880359;29;20460;-79
2022/07/05 10:01:26;;;;;;;13.57;13.10;;;33.10;44.40;;;;;;4880865;29;20821;-78
2022/07/05 10:03:53;;;;;;;13.03;12.23;;;33.60;43.60;;;;;;4879964;29;20961;-79
2022/07/05 10:06:20;;;;;;;13.50;12.90;;;33.70;43.60;;;;;;4880135;29;21002;-79
2022/07/05 10:08:50;;;;;;;13.90;13.30;;;33.90;42.90;;;;;;4880372;29;20460;-78
2022/07/05 10:11:18;;;;;;;13.80;13.20;;;33.80;43.20;;;;;;4880472;29;20464;-79
2022/07/05 10:13:45;;;;;;;14.50;13.97;;;34.70;42.40;;;;;;4880711;29;20580;-78
2022/07/05 10:16:12;;;;;;;14.50;13.90;;;35.20;40.60;;;;;;4886480;29;21022;-77
2022/07/05 10:18:40;;;;;;;14.23;13.73;;;35.90;39.50;;;;;;4879869;29;20482;-79
2022/07/05 10:21:08;;;;;;;14.43;13.93;;;35.80;37.50;;;;;;4879373;29;20460;-79
2022/07/05 10:23:35;;;;;;;12.97;12.57;;;34.30;37.40;;;;;;4879281;29;20884;-78
2022/07/05 10:26:04;;;;;;;14.00;13.50;;;33.80;39.40;;;;;;4879439;29;20488;-77
2022/07/05 10:28:32;;;;;;;14.00;13.50;;;35.20;39.40;;;;;;4879366;29;20562;-79
2022/07/05 10:31:00;;;;;;;14.13;13.53;;;35.10;38.40;;;;;;4879741;29;20463;-77
2022/07/05 10:33:27;;;;;;;14.07;13.23;;;34.70;37.70;;;;;;4879619;29;20503;-78
2022/07/05 10:35:54;;;;;;;14.00;13.20;;;33.10;39.10;;;;;;4879663;29;20961;-78
2022/07/05 10:38:21;;;;;;;13.33;12.83;;;31.80;42.50;;;;;;4879688;29;20800;-78
2022/07/05 10:40:52;;;;;;;13.90;13.40;;;31.90;42.40;;;;;;4879880;29;20875;-78
2022/07/05 10:43:22;;;;;;;13.47;12.97;;;32.00;42.40;;;;;;4879224;29;20482;-78
2022/07/05 10:45:51;;;;;;;14.00;13.30;;;32.70;42.10;;;;;;4879907;29;20543;-79
2022/07/05 10:48:19;;;;;;;13.90;13.40;;;32.30;42.80;;;;;;4879276;29;20456;-77
2022/07/05 10:50:49;;;;;;;13.70;13.13;;;31.50;43.20;;;;;;4879806;29;20471;-80
2022/07/05 10:53:18;;;;;;;13.97;13.37;;;30.80;44.00;;;;;;4879700;29;20498;-77
2022/07/05 10:55:57;;;;;;;14.40;13.60;;;30.90;44.00;;;;;;4879583;29;20983;-79
2022/07/05 10:58:32;;;;;;;14.40;13.87;;;31.90;43.50;;;;;;4882469;29;20463;-77
2022/07/05 11:01:39;;;;;;;14.47;13.97;;;33.20;41.60;;;;;;4883143;29;20947;-78
2022/07/05 11:04:26;;;;;;;15.03;14.33;;;34.40;40.20;;;;;;4875027;29;20492;-78
2022/07/05 11:06:54;;;;;;;13.80;13.40;;;35.10;38.10;;;;;;4879887;29;20460;-79
2022/07/05 11:09:22;;;;;;;13.90;13.40;;;36.10;37.40;;;;;;4877906;29;20468;-78
2022/07/05 11:12:04;;;;;;;14.37;13.87;;;36.80;37.70;;;;;;4879747;29;20459;-78
2022/07/05 11:14:35;;;;;;;15.20;14.60;;;37.10;35.40;;;;;;4879697;29;20491;-78
2022/07/05 11:17:29;;;;;;;15.80;15.07;;;35.30;36.00;;;;;;4879681;29;21015;-79
2022/07/05 11:20:01;;;;;;;14.13;13.63;;;35.90;36.20;;;;;;4861810;29;20663;-79
2022/07/05 11:22:28;;;;;;;14.80;13.90;;;35.80;35.10;;;;;;4861550;29;20460;-79
2022/07/05 11:24:56;;;;;;;14.00;13.50;;;35.50;36.50;;;;;;4861330;29;20449;-78
2022/07/05 11:27:23;;;;;;;14.57;13.97;;;35.70;35.90;;;;;;4875014;29;20487;-79
2022/07/05 11:29:52;;;;;;;13.20;12.70;;;35.20;36.80;;;;;;4879610;29;20456;-78
2022/07/05 11:32:21;;;;;;;12.13;11.63;;;34.50;36.30;;;;;;4879628;29;20463;-77
2022/07/05 11:34:49;;;;;;;12.80;12.30;;;32.90;37.80;;;;;;4879275;29;20495;-78
2022/07/05 11:37:21;;;;;;;13.70;13.20;;;32.80;38.40;;;;;;4879225;29;20460;-77
2022/07/05 11:40:28;;;;;;;14.23;13.67;;;33.00;38.50;;;;;;4878092;29;20472;-77
2022/07/05 11:42:54;;;;;;;13.03;12.53;;;32.10;38.90;;;;;;4876438;29;20801;-77
2022/07/05 11:45:23;;;;;;;13.20;12.70;;;31.40;40.30;;;;;;4872476;29;20483;-77
2022/07/05 11:47:49;;;;;;;12.80;12.33;;;31.70;39.80;;;;;;4879407;29;20459;-77
2022/07/05 11:50:16;;;;;;;13.97;13.47;;;32.70;38.00;;;;;;4879305;29;20460;-77
2022/07/05 11:52:43;;;;;;;13.57;13.07;;;34.10;38.00;;;;;;4878938;29;20463;-77
2022/07/05 11:55:11;;;;;;;14.40;13.80;;;34.50;36.70;;;;;;4879467;29;20456;-77
2022/07/05 11:57:49;;;;;;;15.03;14.13;;;34.40;37.30;;;;;;4879046;29;20466;-76
2022/07/05 12:00:28;;;;;;;14.70;14.20;;;34.30;37.20;;;;;;4878851;29;20488;-78
2022/07/05 12:02:55;;;;;;;14.43;13.70;;;34.60;37.40;;;;;;4878912;29;20463;-79
2022/07/05 12:05:21;;;;;;;14.90;14.27;;;35.80;37.00;;;;;;4879008;29;20467;-78
2022/07/05 12:07:50;;;;;;;14.87;14.30;;;36.80;34.00;;;;;;4879306;29;20476;-78
2022/07/05 12:13:05;;;;;;;14.90;14.20;;;36.40;34.30;;;;;;4878570;29;20568;-78
2022/07/05 12:15:34;;;;;;;14.37;13.87;;;35.60;35.90;;;;;;4878279;29;20460;-77
2022/07/05 12:18:04;;;;;;;18.03;17.00;;;35.00;35.80;;;;;;4877951;29;20974;-78
2022/07/05 12:20:32;;;;;;;14.57;14.07;;;35.30;36.70;;;;;;4878444;29;20499;-77
2022/07/05 12:23:00;;;;;;;15.33;14.67;;;35.20;36.00;;;;;;4879171;29;20939;-78
2022/07/05 12:25:28;;;;;;;15.53;14.70;;;35.10;37.20;;;;;;4878383;29;20852;-78
2022/07/05 12:27:56;;;;;;;13.40;13.00;;;35.50;36.30;;;;;;4878433;29;20494;-78
2022/07/05 12:30:24;;;;;;;14.63;14.13;;;34.60;36.70;;;;;;4878326;29;20460;-78
2022/07/05 12:33:00;;;;;;;13.37;12.87;;;33.70;38.00;;;;;;4878297;29;20547;-79
2022/07/05 12:35:35;;;;;;;14.00;13.43;;;34.00;38.80;;;;;;4878471;29;20457;-77
2022/07/05 12:38:16;;;;;;;13.10;12.37;;;33.40;38.40;;;;;;5085756;27;20509;-78
2022/07/05 12:40:44;;;;;;;14.20;13.60;;;32.70;40.20;;;;;;5088727;28;20814;-77
2022/07/05 12:43:12;;;;;;;13.07;12.27;;;33.20;40.10;;;;;;5088599;28;20445;-78
2022/07/05 12:45:40;;;;;;;13.87;13.27;;;33.10;40.20;;;;;;5083584;28;20455;-78
2022/07/05 12:48:09;;;;;;;12.97;12.27;;;32.60;40.00;;;;;;5088287;28;20442;-77
2022/07/05 12:50:47;;;;;;;14.20;13.47;;;32.60;40.60;;;;;;5088690;28;20664;-78
2022/07/05 12:58:50;;;;;;;14.33;13.40;;;35.40;37.30;;;;;;5086723;28;20438;-77
2022/07/05 13:01:25;;;;;;;14.93;14.43;;;34.30;38.30;;;;;;5067653;28;20955;-78
2022/07/05 13:04:13;;;;;;;13.30;12.90;;;33.80;39.90;;;;;;5067748;28;20443;-77
2022/07/05 13:06:46;;;;;;;13.50;13.00;;;34.20;39.70;;;;;;5077024;28;20939;-78
2022/07/05 13:09:15;;;;;;;13.47;12.87;;;34.50;39.20;;;;;;5086071;28;20943;-78
2022/07/05 13:11:43;;;;;;;13.20;12.60;;;34.70;37.40;;;;;;5087703;28;20431;-77
2022/07/05 13:14:10;;;;;;;13.53;12.90;;;34.30;38.20;;;;;;5087782;28;20438;-77
2022/07/05 13:16:37;;;;;;;12.50;12.00;;;34.60;39.00;;;;;;5087901;28;20509;-78
2022/07/05 13:19:10;;;;;;;12.77;12.17;;;34.30;38.40;;;;;;5087892;28;20434;-78
2022/07/05 13:21:37;;;;;;;14.07;13.57;;;34.70;39.20;;;;;;5087935;28;20450;-79
2022/07/05 13:24:05;;;;;;;13.10;12.70;;;34.70;39.00;;;;;;5085067;28;20454;-78
2022/07/05 13:26:33;;;;;;;12.73;12.23;;;35.20;38.40;;;;;;5071826;28;20812;-78
2022/07/05 13:29:00;;;;;;;13.53;12.93;;;34.60;38.80;;;;;;5045337;28;20459;-78
2022/07/05 13:31:30;;;;;;;13.10;12.70;;;35.00;38.20;;;;;;5045574;28;20452;-77
2022/07/05 13:33:57;;;;;;;12.93;12.40;;;35.00;37.50;;;;;;5050683;28;20516;-80
2022/07/05 13:36:24;;;;;;;13.17;12.77;;;34.60;38.60;;;;;;5063829;28;20498;-79
2022/07/05 13:38:51;;;;;;;14.00;13.50;;;34.40;39.00;;;;;;5058578;28;20809;-78
2022/07/05 13:41:18;;;;;;;13.03;12.63;;;33.80;39.80;;;;;;5062569;28;20470;-77
2022/07/05 13:43:46;;;;;;;14.13;13.53;;;33.70;40.50;;;;;;5066658;28;20447;-77
2022/07/05 13:46:13;;;;;;;13.90;13.23;;;34.10;39.40;;;;;;5066609;28;20458;-77
2022/07/05 13:48:40;;;;;;;14.47;13.77;;;34.00;39.20;;;;;;5058014;28;20455;-77
2022/07/05 13:51:07;;;;;;;13.83;13.23;;;34.00;39.60;;;;;;5053118;28;20526;-78
2022/07/05 13:53:36;;;;;;;14.33;13.40;;;33.80;39.30;;;;;;5052830;28;20497;-77
2022/07/05 13:56:03;;;;;;;14.07;13.43;;;33.70;39.30;;;;;;5052866;28;21023;-76
2022/07/05 13:58:30;;;;;;;13.63;13.13;;;33.00;39.80;;;;;;5053210;28;20548;-78
2022/07/05 14:00:58;;;;;;;13.10;12.70;;;33.50;40.10;;;;;;5053401;28;20451;-78
2022/07/05 14:03:24;;;;;;;14.33;13.57;;;33.50;39.60;;;;;;5053052;28;20447;-77
2022/07/05 14:05:51;;;;;;;13.93;13.43;;;33.40;39.80;;;;;;5052620;28;20452;-76
2022/07/05 14:08:21;;;;;;;14.13;13.53;;;33.00;40.20;;;;;;5052658;28;20470;-75
2022/07/05 14:10:50;;;;;;;13.43;12.67;;;33.30;40.30;;;;;;5052645;28;20870;-78
2022/07/05 14:13:17;;;;;;;12.77;12.27;;;33.60;39.60;;;;;;5052709;28;20945;-76
2022/07/05 14:15:44;;;;;;;15.33;14.73;;;33.50;40.90;;;;;;5053174;28;20444;-76
2022/07/05 14:18:12;;;;;;;14.60;13.90;;;33.70;40.40;;;;;;5052953;28;20484;-78
2022/07/05 14:20:38;;;;;;;13.40;12.80;;;34.00;39.90;;;;;;5052777;28;20455;-78
2022/07/05 14:23:05;;;;;;;12.37;11.97;;;33.10;40.80;;;;;;5052539;28;20452;-79
2022/07/05 14:25:32;;;;;;;14.10;13.60;;;33.50;40.60;;;;;;5052398;28;20475;-77
2022/07/05 14:27:59;;;;;;;14.63;14.10;;;33.40;40.80;;;;;;5050739;28;20452;-78
2022/07/05 14:30:27;;;;;;;13.60;13.10;;;33.80;39.70;;;;;;5042825;28;20448;-78
2022/07/05 14:32:54;;;;;;;14.00;13.50;;;33.60;39.50;;;;;;5043259;28;20772;-78
2022/07/05 14:35:23;;;;;;;13.70;13.20;;;32.70;40.30;;;;;;5042344;28;20445;-77
2022/07/05 14:37:50;;;;;;;13.53;13.03;;;33.10;40.00;;;;;;5037662;28;20603;-77
2022/07/05 14:40:18;;;;;;;13.10;12.70;;;32.70;40.10;;;;;;5032824;28;20480;-75
2022/07/05 14:42:45;;;;;;;13.83;13.03;;;32.10;40.80;;;;;;5042019;28;20448;-75
2022/07/05 14:45:12;;;;;;;12.77;12.10;;;31.70;42.40;;;;;;5042890;28;20456;-75
2022/07/05 14:47:38;;;;;;;12.90;12.40;;;32.00;41.30;;;;;;5042718;28;20440;-75
2022/07/05 14:50:05;;;;;;;13.70;13.20;;;32.00;41.70;;;;;;5041634;28;20455;-76
2022/07/05 14:52:33;;;;;;;13.83;13.20;;;32.10;41.10;;;;;;5040653;28;20448;-76
2022/07/05 14:55:00;;;;;;;13.37;12.87;;;32.20;41.40;;;;;;5042777;28;20440;-75
2022/07/05 14:57:27;;;;;;;14.07;13.57;;;31.70;40.60;;;;;;5041928;28;20473;-75
2022/07/05 14:59:54;;;;;;;13.00;12.30;;;30.60;41.70;;;;;;5031562;28;20449;-76
2022/07/05 15:02:21;;;;;;;12.90;12.40;;;30.20;43.20;;;;;;5032211;28;20873;-75
2022/07/05 15:04:48;;;;;;;12.30;11.90;;;30.20;42.90;;;;;;5031718;28;20784;-76
2022/07/05 15:07:15;;;;;;;12.90;12.40;;;29.60;43.80;;;;;;5031934;28;20855;-74
2022/07/05 15:09:43;;;;;;;12.33;11.93;;;29.50;45.50;;;;;;5031630;28;20453;-75
2022/07/05 15:12:10;;;;;;;12.60;12.10;;;29.40;45.50;;;;;;5031680;28;20912;-75
2022/07/05 15:14:37;;;;;;;13.17;12.57;;;29.40;44.70;;;;;;5031447;28;20939;-76
2022/07/05 15:17:04;;;;;;;12.83;12.43;;;29.20;44.80;;;;;;5032381;28;20507;-76
2022/07/05 15:19:30;;;;;;;14.23;13.37;;;29.00;45.10;;;;;;5032091;28;20476;-74
2022/07/05 15:21:57;;;;;;;12.27;11.77;;;28.90;45.40;;;;;;5031877;28;20445;-76
2022/07/05 15:24:24;;;;;;;12.70;12.00;;;28.50;45.70;;;;;;5031352;28;20800;-75
2022/07/05 15:26:52;;;;;;;12.67;12.17;;;28.20;45.80;;;;;;5031205;28;20469;-75
2022/07/05 15:29:18;;;;;;;13.13;12.53;;;27.80;46.50;;;;;;5031267;28;20832;-75
2022/07/05 15:31:45;;;;;;;14.60;13.60;;;27.90;46.90;;;;;;5031787;28;20441;-76
2022/07/05 15:34:13;;;;;;;12.83;12.30;;;28.00;47.10;;;;;;5031526;28;20453;-76
2022/07/05 15:36:40;;;;;;;13.50;12.70;;;28.20;47.50;;;;;;5031217;28;20488;-75
2022/07/05 15:39:07;;;;;;;12.90;12.40;;;28.20;46.40;;;;;;5031006;28;20461;-76
2022/07/05 15:41:36;;;;;;;12.93;12.30;;;28.10;46.60;;;;;;5031147;28;20485;-74
2022/07/05 15:44:04;;;;;;;12.80;12.30;;;27.90;46.70;;;;;;5032097;28;20461;-75
2022/07/05 15:49:12;;;;;;;12.30;11.90;;;27.80;47.70;;;;;;5031083;28;20668;-76
2022/07/05 15:51:38;;;;;;;12.67;11.97;;;27.80;47.20;;;;;;5031362;28;20451;-76
2022/07/05 15:54:05;;;;;;;12.30;11.50;;;27.80;47.00;;;;;;5030953;28;20457;-76
2022/07/05 15:56:32;;;;;;;12.93;12.43;;;27.90;47.70;;;;;;5031029;28;20499;-76
2022/07/05 15:58:59;;;;;;;13.37;12.67;;;28.00;47.70;;;;;;5031159;28;20492;-75
2022/07/05 16:01:27;;;;;;;12.70;12.20;;;28.00;47.30;;;;;;5031152;28;20459;-75
2022/07/05 16:03:53;;;;;;;12.90;12.40;;;28.00;47.60;;;;;;5031069;28;20547;-76
2022/07/05 16:06:20;;;;;;;12.77;12.17;;;28.00;47.50;;;;;;5030969;28;20460;-75
2022/07/05 16:08:47;;;;;;;13.07;12.40;;;28.10;47.20;;;;;;5030486;28;20456;-75
2022/07/05 16:11:13;;;;;;;12.13;11.63;;;27.90;47.00;;;;;;5030922;28;20449;-75
2022/07/05 16:13:40;;;;;;;11.80;11.40;;;27.80;47.80;;;;;;5030696;28;20445;-75
2022/07/05 16:16:12;;;;;;;11.97;11.53;;;27.80;48.40;;;;;;5030939;28;20449;-75
2022/07/05 16:18:42;;;;;;;14.27;13.67;;;27.60;47.90;;;;;;5030684;28;20493;-75
2022/07/05 16:21:09;;;;;;;12.07;11.67;;;27.40;47.20;;;;;;5030599;28;20795;-76
2022/07/05 16:23:37;;;;;;;11.90;11.40;;;27.40;47.60;;;;;;5030486;28;20453;-75
2022/07/05 16:26:04;;;;;;;12.50;12.00;;;27.40;48.00;;;;;;5030489;28;20480;-76
2022/07/05 16:28:31;;;;;;;12.33;11.83;;;27.40;48.70;;;;;;5030642;28;20829;-75
2022/07/05 16:31:02;;;;;;;13.13;12.47;;;27.60;48.30;;;;;;5030747;28;20464;-77
2022/07/05 16:33:29;;;;;;;11.80;11.30;;;27.60;47.80;;;;;;5031317;28;20828;-76
2022/07/05 16:35:57;;;;;;;14.20;13.50;;;27.60;48.00;;;;;;5034721;28;20472;-76
2022/07/05 16:38:24;;;;;;;15.40;14.70;;;27.60;47.90;;;;;;5033880;28;20477;-75
2022/07/05 16:40:51;;;;;;;12.80;12.30;;;27.60;48.70;;;;;;5031267;28;20445;-76
2022/07/05 16:43:18;;;;;;;12.10;11.70;;;27.60;48.40;;;;;;5031399;28;20832;-76
2022/07/05 16:45:44;;;;;;;12.57;11.97;;;27.70;48.10;;;;;;5038961;28;20459;-74
2022/07/05 16:48:11;;;;;;;13.20;12.37;;;27.60;47.70;;;;;;5039451;28;20607;-74
2022/07/05 16:50:38;;;;;;;13.40;12.90;;;27.40;47.30;;;;;;5039423;28;20453;-74
2022/07/05 16:53:06;;;;;;;11.47;10.97;;;27.40;47.60;;;;;;5037914;28;20441;-75
2022/07/05 16:55:33;;;;;;;14.20;13.70;;;27.30;47.40;;;;;;5038715;28;20459;-75
2022/07/05 16:58:02;;;;;;;13.20;12.70;;;27.20;47.90;;;;;;5039989;28;20483;-75
2022/07/05 17:00:29;;;;;;;12.30;11.60;;;27.20;48.80;;;;;;5039655;28;20507;-75
2022/07/05 17:02:56;;;;;;;12.40;11.70;;;27.20;48.40;;;;;;5037918;28;20449;-76
2022/07/05 17:05:22;;;;;;;12.53;11.83;;;27.20;48.30;;;;;;5039121;28;20440;-74
2022/07/05 17:07:49;;;;;;;12.50;12.00;;;27.20;47.90;;;;;;5039254;28;20863;-75
2022/07/05 17:10:17;;;;;;;14.23;13.40;;;27.10;47.80;;;;;;5037324;28;20446;-75
2022/07/05 17:12:44;;;;;;;13.47;12.70;;;27.00;47.90;;;;;;5038942;28;20454;-75
2022/07/05 17:15:12;;;;;;;14.20;13.60;;;26.90;48.30;;;;;;5039812;28;20902;-74
2022/07/05 17:17:38;;;;;;;14.73;13.93;;;26.90;48.70;;;;;;5037953;28;20512;-75
2022/07/05 17:20:06;;;;;;;11.37;10.87;;;26.90;48.90;;;;;;5037675;28;20811;-77
2022/07/05 17:22:33;;;;;;;11.53;11.13;;;26.80;48.50;;;;;;5040349;28;20445;-76